Northport NY Webcam more information Northport NY Webcam


Visit our other weather sites:

Template documentation
and downloads

And another site



Nearby METAR Reports


Warning: A non-numeric value encountered in /home/portan24/public_html/weather28/metar/wsMetarTxt.php on line 608

Warning: A non-numeric value encountered in /home/portan24/public_html/weather28/metar/wsMetarTxt.php on line 608
   
EBBR - Brussels International Airport, Belgium
Distance from station: W 9 mi
Updated: Sep 20 2017 3:50 pm
Clear  
Clear  
   Wind: South 5.8 mph
Wind: South 5.8 mph
Temperature: 55.4°F
Dew Point: 50°F
Humidity: 82%
Barometer: 30.12 inHg
Visibility: More than 6 mi
Cloud details: Clear m
EBBR 201950Z 19005KT CAVOK 13/10 Q1020 NOSIG
EBBE - Beauvechain (Bevekom), Belgium
Distance from station: SSE 10 mi
Updated: Sep 20 2017 3:55 pm
Mostly Cloudy  
Mostly Cloudy  
   Wind: South 6.9 mph
Wind: South 6.9 mph
Temperature: 55.4°F
Dew Point: 48.2°F
Humidity: 77%
Barometer: 30.15 inHg
Clouds: Mostly Cloudy
Visibility: More than 6 mi
Cloud details: Mostly Cloudy 1676 m
EBBE 201955Z AUTO 19006KT 9999 BKN055/// 13/09 Q1021 BLU
EBDT - Schaffen, Belgium
Distance from station: ENE 18 mi
Updated: Sep 20 2017 3:55 pm
Partly Cloudy  
Partly Cloudy  
   Wind: South 3.5 mph
Wind: South 3.5 mph
Temperature: 51.8°F
Dew Point: 48.2°F
Humidity: 88%
Barometer: 30.15 inHg
Clouds: Partly Cloudy
Visibility: More than 6 mi
Cloud details: Few Clouds 1829 m,
Partly Cloudy 5486 m
EBDT 201955Z 17003KT 9999 FEW060 SCT180 11/09 Q1021 BLU BLU
EBAW - Antwerp/Deurne, Belgium
Distance from station: NNW 23 mi
Updated: Sep 20 2017 3:50 pm
Clear  
Clear  
   Wind: SSW 3.5 mph
Wind: SSW 3.5 mph
Temperature: 59°F
Dew Point: 50°F
Humidity: 72%
Barometer: 30.12 inHg
Visibility: More than 6 mi
Cloud details: Clear m
EBAW 201950Z 20003KT CAVOK 15/10 Q1020 NOSIG
EBCI - Charleroi/Gosselies, Belgium
Distance from station: SSW 32 mi
Updated: Sep 20 2017 3:50 pm
Clear  
Clear  
   Wind: South 8.1 mph
Wind: South 8.1 mph
Temperature: 53.6°F
Dew Point: 46.4°F
Humidity: 77%
Barometer: 30.15 inHg
Visibility: More than 6 mi
Cloud details: Clear m
EBCI 201950Z 19007KT CAVOK 12/08 Q1021 NOSIG
EBLG - Bierset/Liege, Belgium
Distance from station: ESE 38 mi
Updated: Sep 20 2017 3:50 pm
Clear  
Clear  
   Wind: SSW 8.1 mph
Wind: SSW 8.1 mph
Temperature: 55.4°F
Dew Point: 48.2°F
Humidity: 77%
Barometer: 30.15 inHg
Visibility: More than 6 mi
Cloud details: Clear m
EBLG 201950Z 21007KT CAVOK 13/09 Q1021 NOSIG

Script developed by  Saratoga-weather.org Adapted for the template by  Weerstation Leuven

You find our weather info also at:

Weather Underground

AWEKAS

Citizen Weather Observer Program (CWOP)

Equipment we use:

Weather-station
Davis VP2

Davis VP2